Time;durP1;ratioP1;P1;durP2;ratioP2;P2;SDS_P1;SDS_P2;PMS_P1;PMS_P2;Temp;Humidity;BMP_temperature;BMP_pressure;BME280_temperature;BME280_humidity;BME280_pressure;Samples;Min_cycle;Max_cycle;Signal;HPM_P1;HPM_P2
2023/03/09 00:00:36;;;;;;;7.23;5.97;;;8.20;99.90;;;;;;4995123;28;20172;-72
2023/03/09 00:03:04;;;;;;;7.93;7.03;;;8.20;99.90;;;;;;5008497;28;20266;-76
2023/03/09 00:05:30;;;;;;;8.47;7.00;;;8.30;99.90;;;;;;4996599;28;20266;-76
2023/03/09 00:07:55;;;;;;;7.33;6.50;;;8.20;99.90;;;;;;4997277;28;20257;-76
2023/03/09 00:10:22;;;;;;;7.77;6.20;;;8.30;99.90;;;;;;4993588;28;20180;-75
2023/03/09 00:12:48;;;;;;;7.70;6.70;;;8.20;99.90;;;;;;4999250;28;20210;-77
2023/03/09 00:15:16;;;;;;;8.60;6.63;;;8.30;99.90;;;;;;5013547;28;20241;-77
2023/03/09 00:17:45;;;;;;;6.90;5.70;;;8.30;99.90;;;;;;5002451;28;20249;-75
2023/03/09 00:20:17;;;;;;;6.90;5.80;;;8.30;99.90;;;;;;4994480;28;20286;-77
2023/03/09 00:22:49;;;;;;;7.27;5.93;;;8.30;99.90;;;;;;5014698;28;20182;-77
2023/03/09 00:25:15;;;;;;;7.67;5.93;;;8.30;99.90;;;;;;5016484;28;20202;-77
2023/03/09 00:27:46;;;;;;;6.60;5.57;;;8.30;99.90;;;;;;5016403;28;20213;-77
2023/03/09 00:30:13;;;;;;;6.40;5.77;;;8.30;99.90;;;;;;5017342;28;20178;-78
2023/03/09 00:32:39;;;;;;;6.17;5.57;;;8.30;99.90;;;;;;5017221;28;20186;-80
2023/03/09 00:35:05;;;;;;;7.57;6.07;;;8.30;99.90;;;;;;5016855;28;20209;-77
2023/03/09 00:37:33;;;;;;;6.53;5.73;;;8.30;99.90;;;;;;5017053;28;20266;-76
2023/03/09 00:40:01;;;;;;;8.63;6.70;;;8.30;99.90;;;;;;4997185;28;20186;-77
2023/03/09 00:42:26;;;;;;;7.97;6.40;;;8.30;99.90;;;;;;4991535;28;20183;-77
2023/03/09 00:44:52;;;;;;;7.87;6.50;;;8.30;99.90;;;;;;4992884;28;20180;-77
2023/03/09 00:47:29;;;;;;;7.63;6.57;;;8.40;99.90;;;;;;4991258;28;20271;-78
2023/03/09 00:49:57;;;;;;;7.00;6.30;;;8.40;99.90;;;;;;4989707;28;20179;-76
2023/03/09 00:52:23;;;;;;;6.00;5.37;;;8.40;99.90;;;;;;4993355;28;20207;-77
2023/03/09 00:54:52;;;;;;;9.87;6.77;;;8.40;99.90;;;;;;4993454;28;20188;-77
2023/03/09 00:57:21;;;;;;;7.40;6.33;;;8.40;99.90;;;;;;4993680;28;20195;-75
2023/03/09 00:59:47;;;;;;;7.17;6.33;;;8.40;99.90;;;;;;4991783;28;20183;-71
2023/03/09 01:02:16;;;;;;;7.60;6.33;;;8.50;99.90;;;;;;4993707;28;20200;-77
2023/03/09 01:04:41;;;;;;;8.73;7.00;;;8.40;99.90;;;;;;4995496;28;20326;-74
2023/03/09 01:07:07;;;;;;;6.87;5.60;;;8.40;99.90;;;;;;4991821;28;20195;-77
2023/03/09 01:09:32;;;;;;;7.33;5.87;;;8.40;99.90;;;;;;4993303;28;20265;-77
2023/03/09 01:11:58;;;;;;;6.80;5.90;;;8.40;99.90;;;;;;4994000;28;20186;-77
2023/03/09 01:14:26;;;;;;;7.70;6.47;;;8.40;99.90;;;;;;4994847;28;20266;-77
2023/03/09 01:16:51;;;;;;;7.37;5.63;;;8.50;99.90;;;;;;4992768;28;20215;-71
2023/03/09 01:19:19;;;;;;;8.93;6.60;;;8.40;99.90;;;;;;4994565;28;20658;-77
2023/03/09 01:21:47;;;;;;;7.47;6.53;;;8.40;99.90;;;;;;4994469;28;20233;-76
2023/03/09 01:24:16;;;;;;;7.63;5.90;;;8.40;99.90;;;;;;4992414;28;20245;-78
2023/03/09 01:26:41;;;;;;;7.90;6.13;;;8.40;99.90;;;;;;4994684;28;20183;-78
2023/03/09 01:29:07;;;;;;;7.83;6.97;;;8.30;99.90;;;;;;4993629;28;20198;-76
2023/03/09 01:31:35;;;;;;;6.70;5.87;;;8.30;99.90;;;;;;4993970;28;20263;-78
2023/03/09 01:34:03;;;;;;;6.60;5.70;;;8.30;99.90;;;;;;4995226;28;20195;-76
2023/03/09 01:36:28;;;;;;;7.00;5.77;;;8.30;99.90;;;;;;4997288;28;20179;-75
2023/03/09 01:38:54;;;;;;;6.30;5.40;;;8.30;99.90;;;;;;4995101;28;20199;-76
2023/03/09 01:41:23;;;;;;;7.00;5.73;;;8.30;99.90;;;;;;4993056;28;20191;-76
2023/03/09 01:43:53;;;;;;;6.87;6.07;;;8.30;99.90;;;;;;4993206;28;20184;-77
2023/03/09 01:46:24;;;;;;;7.90;5.93;;;8.30;99.90;;;;;;4993138;28;20200;-77
2023/03/09 01:48:58;;;;;;;7.00;5.77;;;8.30;99.90;;;;;;4991993;28;20179;-73
2023/03/09 01:51:31;;;;;;;7.30;6.13;;;8.30;99.90;;;;;;4995209;28;20195;-71
2023/03/09 01:54:02;;;;;;;6.87;6.17;;;8.30;99.90;;;;;;5001909;28;20218;-70
2023/03/09 01:56:33;;;;;;;7.50;6.27;;;8.20;99.90;;;;;;5005213;28;20198;-75
2023/03/09 01:59:04;;;;;;;7.27;6.13;;;8.20;99.90;;;;;;5016508;28;20198;-75
2023/03/09 02:01:30;;;;;;;7.43;5.97;;;8.20;99.90;;;;;;5006751;28;20223;-75
2023/03/09 02:04:02;;;;;;;7.13;6.30;;;8.30;99.90;;;;;;4994459;28;20237;-75
2023/03/09 02:06:29;;;;;;;7.50;6.70;;;8.20;99.90;;;;;;4988531;28;20187;-75
2023/03/09 02:09:00;;;;;;;7.77;6.63;;;8.20;99.90;;;;;;4995853;28;20207;-75
2023/03/09 02:11:25;;;;;;;8.13;7.00;;;8.20;99.90;;;;;;4997353;28;20194;-76
2023/03/09 02:13:53;;;;;;;8.70;7.50;;;8.20;99.90;;;;;;5002834;28;20195;-68
2023/03/09 02:16:19;;;;;;;8.20;7.30;;;8.20;99.90;;;;;;5017243;28;20206;-66
2023/03/09 02:18:49;;;;;;;9.17;6.87;;;8.20;99.90;;;;;;5006387;28;20241;-69
2023/03/09 02:21:52;;;;;;;8.67;7.20;;;8.30;99.90;;;;;;5017388;28;20171;-70
2023/03/09 02:24:21;;;;;;;7.53;6.23;;;8.20;99.90;;;;;;5021297;28;20194;-66
2023/03/09 02:26:52;;;;;;;7.37;6.60;;;8.20;99.90;;;;;;5026900;28;20549;-71
2023/03/09 02:29:18;;;;;;;7.47;5.97;;;8.20;99.90;;;;;;5028069;28;20194;-68
2023/03/09 02:31:43;;;;;;;7.43;5.90;;;8.20;99.90;;;;;;5012859;28;20226;-63
2023/03/09 02:34:09;;;;;;;6.63;5.63;;;8.30;99.90;;;;;;5011083;28;20191;-69
2023/03/09 02:36:35;;;;;;;7.10;5.60;;;8.30;99.90;;;;;;5005300;28;20167;-70
2023/03/09 02:39:09;;;;;;;6.13;5.53;;;8.30;99.90;;;;;;5023903;28;20179;-59
2023/03/09 02:41:38;;;;;;;6.40;5.63;;;8.40;99.90;;;;;;5025448;28;20278;-60
2023/03/09 02:44:04;;;;;;;6.80;5.27;;;8.40;99.90;;;;;;5009959;28;20202;-67
2023/03/09 02:46:32;;;;;;;6.40;5.60;;;8.40;99.90;;;;;;4993786;28;20181;-75
2023/03/09 02:48:58;;;;;;;6.23;5.40;;;8.40;99.90;;;;;;4991997;28;20175;-76
2023/03/09 02:51:23;;;;;;;6.67;5.43;;;8.50;99.90;;;;;;4995094;28;20202;-76
2023/03/09 02:53:49;;;;;;;6.80;5.53;;;8.50;99.90;;;;;;4993170;28;20178;-76
2023/03/09 02:56:16;;;;;;;6.50;4.93;;;8.50;99.90;;;;;;4991079;28;20179;-75
2023/03/09 02:58:47;;;;;;;5.67;5.10;;;8.50;99.90;;;;;;4992342;28;20207;-73
2023/03/09 03:01:14;;;;;;;6.30;5.37;;;8.60;99.90;;;;;;4988697;28;20171;-76
2023/03/09 03:03:45;;;;;;;6.07;4.90;;;8.60;99.90;;;;;;5003820;28;20187;-79
2023/03/09 03:06:10;;;;;;;5.37;4.60;;;8.60;99.90;;;;;;4992271;28;20191;-76
2023/03/09 03:08:43;;;;;;;5.13;4.40;;;8.60;99.90;;;;;;4992810;28;20190;-77
2023/03/09 03:11:09;;;;;;;5.27;4.70;;;8.60;99.90;;;;;;4992356;28;20202;-66
2023/03/09 03:13:34;;;;;;;5.17;4.43;;;8.60;99.90;;;;;;5003572;28;20219;-76
2023/03/09 03:16:01;;;;;;;4.30;3.90;;;8.70;99.90;;;;;;4995895;28;20202;-76
2023/03/09 03:18:29;;;;;;;5.00;4.03;;;8.60;99.90;;;;;;4995142;28;20195;-76
2023/03/09 03:20:59;;;;;;;4.57;3.97;;;8.70;99.90;;;;;;4995257;28;20227;-75
2023/03/09 03:23:27;;;;;;;4.67;4.13;;;8.70;99.90;;;;;;4996298;28;20174;-76
2023/03/09 03:25:52;;;;;;;4.70;4.20;;;8.70;99.90;;;;;;4995687;28;20202;-76
2023/03/09 03:28:18;;;;;;;4.33;3.80;;;8.70;99.90;;;;;;4991970;28;20176;-75
2023/03/09 03:30:54;;;;;;;4.57;3.87;;;8.70;99.90;;;;;;4995749;28;20184;-74
2023/03/09 03:33:27;;;;;;;4.60;3.73;;;8.80;99.90;;;;;;4996368;28;20194;-71
2023/03/09 03:35:52;;;;;;;5.60;4.23;;;8.80;99.90;;;;;;4996879;28;20306;-75
2023/03/09 03:38:21;;;;;;;5.40;4.70;;;8.80;99.90;;;;;;4995316;28;20305;-75
2023/03/09 03:40:47;;;;;;;7.13;5.73;;;8.80;99.90;;;;;;4996134;28;20180;-75
2023/03/09 03:43:15;;;;;;;6.43;5.77;;;8.80;99.90;;;;;;4995585;28;20182;-76
2023/03/09 03:45:43;;;;;;;7.27;5.97;;;8.80;99.90;;;;;;4993699;28;20183;-73
2023/03/09 03:48:09;;;;;;;7.10;6.03;;;8.70;99.90;;;;;;4994014;28;20275;-72
2023/03/09 03:50:36;;;;;;;7.20;6.10;;;8.80;99.90;;;;;;4993377;28;20258;-72
2023/03/09 03:53:02;;;;;;;7.53;6.27;;;8.70;99.90;;;;;;4993710;28;20207;-73
2023/03/09 03:55:28;;;;;;;8.67;7.07;;;8.70;99.90;;;;;;4994886;28;20296;-66
2023/03/09 03:57:53;;;;;;;9.70;8.07;;;8.60;99.90;;;;;;4990992;28;20238;-73
2023/03/09 04:00:19;;;;;;;9.83;7.43;;;8.60;99.90;;;;;;4995560;28;20282;-69
2023/03/09 04:02:47;;;;;;;10.40;8.30;;;8.60;99.90;;;;;;4993765;28;20267;-75
2023/03/09 04:05:15;;;;;;;10.83;8.47;;;8.60;99.90;;;;;;4995130;28;20199;-74
2023/03/09 04:07:43;;;;;;;9.43;7.70;;;8.50;99.90;;;;;;4992530;28;20187;-74
2023/03/09 04:10:12;;;;;;;10.97;8.00;;;8.40;99.90;;;;;;4997662;28;20203;-75
2023/03/09 04:12:38;;;;;;;11.40;8.30;;;8.30;99.90;;;;;;4994127;28;20226;-75
2023/03/09 04:15:08;;;;;;;9.17;7.40;;;8.30;99.90;;;;;;4996732;28;20215;-74
2023/03/09 04:17:37;;;;;;;11.03;8.57;;;8.30;99.90;;;;;;4991760;28;20215;-75
2023/03/09 04:20:05;;;;;;;10.13;8.23;;;8.20;99.90;;;;;;5008510;28;20209;-74
2023/03/09 04:22:31;;;;;;;10.33;8.50;;;8.20;99.90;;;;;;5016573;28;20179;-75
2023/03/09 04:24:59;;;;;;;10.93;8.37;;;8.20;99.90;;;;;;4999925;28;20207;-75
2023/03/09 04:27:24;;;;;;;11.47;8.10;;;8.10;99.90;;;;;;4995728;28;20211;-74
2023/03/09 04:29:50;;;;;;;12.70;9.13;;;8.10;99.90;;;;;;4995968;28;20263;-77
2023/03/09 04:32:18;;;;;;;10.77;7.90;;;8.10;99.90;;;;;;4995808;28;20218;-74
2023/03/09 04:34:46;;;;;;;11.17;8.40;;;8.10;99.90;;;;;;5011963;28;20183;-72
2023/03/09 04:37:14;;;;;;;12.03;8.53;;;8.10;99.90;;;;;;4993629;28;20215;-72
2023/03/09 04:39:40;;;;;;;11.40;8.30;;;8.10;99.90;;;;;;4992768;28;20219;-74
2023/03/09 04:42:08;;;;;;;11.67;8.47;;;8.00;99.90;;;;;;4989847;28;20184;-72
2023/03/09 04:44:41;;;;;;;11.77;8.90;;;8.00;99.90;;;;;;4989896;28;20246;-74
2023/03/09 04:47:06;;;;;;;11.43;8.37;;;8.00;99.90;;;;;;4994963;28;20179;-70
2023/03/09 04:49:37;;;;;;;11.40;8.70;;;8.00;99.90;;;;;;4993273;28;20179;-74
2023/03/09 04:52:02;;;;;;;10.80;8.60;;;8.00;99.90;;;;;;4956345;28;1115752;-72
2023/03/09 04:54:28;;;;;;;13.50;9.60;;;7.90;99.90;;;;;;4992689;28;20187;-73
2023/03/09 04:56:53;;;;;;;12.10;8.70;;;7.90;99.90;;;;;;4992502;28;20210;-68
2023/03/09 04:59:19;;;;;;;11.07;8.73;;;7.90;99.90;;;;;;4991744;28;20350;-73
2023/03/09 05:01:47;;;;;;;12.57;8.90;;;7.90;99.90;;;;;;4992978;28;20195;-72
2023/03/09 05:04:17;;;;;;;11.67;9.20;;;7.90;99.90;;;;;;4995176;28;20171;-73
2023/03/09 05:06:44;;;;;;;18.07;11.37;;;7.90;99.90;;;;;;4993581;28;20218;-73
2023/03/09 05:09:12;;;;;;;13.47;9.83;;;7.90;99.90;;;;;;4994499;28;20179;-69
2023/03/09 05:11:38;;;;;;;13.00;9.63;;;7.90;99.90;;;;;;4993520;28;20175;-72
2023/03/09 05:14:06;;;;;;;12.70;9.63;;;7.80;99.90;;;;;;4993457;28;20202;-70
2023/03/09 05:16:32;;;;;;;12.63;9.03;;;7.80;99.90;;;;;;4989496;28;20199;-71
2023/03/09 05:19:00;;;;;;;12.87;9.87;;;7.70;99.90;;;;;;4990686;28;20227;-70
2023/03/09 05:21:28;;;;;;;14.37;9.60;;;7.70;99.90;;;;;;4993007;28;20266;-70
2023/03/09 05:23:53;;;;;;;11.80;9.70;;;7.70;99.90;;;;;;4989904;28;20218;-70
2023/03/09 05:26:22;;;;;;;12.40;9.30;;;7.60;99.90;;;;;;4990439;28;20187;-68
2023/03/09 05:28:49;;;;;;;13.53;10.00;;;7.60;99.90;;;;;;4994266;28;20207;-68
2023/03/09 05:31:19;;;;;;;13.10;9.07;;;7.60;99.90;;;;;;5008130;28;20230;-70
2023/03/09 05:33:51;;;;;;;16.20;10.83;;;7.50;99.90;;;;;;4995279;28;20187;-66
2023/03/09 05:36:25;;;;;;;18.00;11.13;;;7.50;99.90;;;;;;4994913;28;20406;-71
2023/03/09 05:38:52;;;;;;;14.60;10.13;;;7.50;99.90;;;;;;4990198;28;20184;-71
2023/03/09 05:41:18;;;;;;;16.00;9.93;;;7.50;99.90;;;;;;4993405;28;20295;-71
2023/03/09 05:43:47;;;;;;;15.67;10.30;;;7.50;99.90;;;;;;4993489;28;20327;-67
2023/03/09 05:46:18;;;;;;;17.47;11.30;;;7.40;99.90;;;;;;4993841;28;20237;-70
2023/03/09 05:48:48;;;;;;;15.80;10.80;;;7.60;99.90;;;;;;5005561;28;20199;-70
2023/03/09 05:51:13;;;;;;;15.87;10.43;;;7.50;99.90;;;;;;4993779;28;20250;-70
2023/03/09 05:53:41;;;;;;;18.10;11.47;;;7.50;99.90;;;;;;4991508;28;20195;-71
2023/03/09 05:56:09;;;;;;;16.00;10.43;;;7.50;99.90;;;;;;4986661;28;20219;-70
2023/03/09 05:58:35;;;;;;;16.17;10.33;;;7.50;99.90;;;;;;4995265;28;20221;-64
2023/03/09 06:01:03;;;;;;;15.93;11.83;;;7.50;99.90;;;;;;4993423;28;20191;-67
2023/03/09 06:03:29;;;;;;;16.93;11.33;;;7.40;99.90;;;;;;4992060;28;20179;-66
2023/03/09 06:06:04;;;;;;;17.10;10.90;;;7.40;99.90;;;;;;4991789;28;20210;-66
2023/03/09 06:08:30;;;;;;;14.60;9.83;;;7.40;99.90;;;;;;4995454;28;20198;-67
2023/03/09 06:11:02;;;;;;;17.10;10.10;;;7.40;99.90;;;;;;4995071;28;20187;-66
2023/03/09 06:13:28;;;;;;;13.30;9.33;;;7.40;99.90;;;;;;4995463;28;20179;-67
2023/03/09 06:15:54;;;;;;;13.60;9.27;;;7.30;99.90;;;;;;4980722;28;20265;-67
2023/03/09 06:18:21;;;;;;;12.93;8.67;;;7.30;99.90;;;;;;4994362;28;20221;-67
2023/03/09 06:20:49;;;;;;;11.87;8.70;;;7.30;99.90;;;;;;4994648;28;20187;-67
2023/03/09 06:23:15;;;;;;;12.33;8.23;;;7.20;99.90;;;;;;4994809;28;20190;-67
2023/03/09 06:25:41;;;;;;;13.07;8.80;;;7.20;99.90;;;;;;4994778;28;20207;-67
2023/03/09 06:28:06;;;;;;;12.93;9.03;;;7.30;99.90;;;;;;4994611;28;20175;-67
2023/03/09 06:30:37;;;;;;;13.67;9.07;;;7.20;99.90;;;;;;5002853;28;20183;-69
2023/03/09 06:33:08;;;;;;;12.60;8.67;;;7.20;99.90;;;;;;4988410;28;20214;-68
2023/03/09 06:35:36;;;;;;;12.90;8.27;;;7.20;99.90;;;;;;4988135;28;20245;-69
2023/03/09 06:38:05;;;;;;;12.87;8.23;;;7.20;99.90;;;;;;4994980;28;20206;-68
2023/03/09 06:40:33;;;;;;;12.10;8.67;;;7.30;99.90;;;;;;4994051;28;20203;-67
2023/03/09 06:43:01;;;;;;;10.03;7.20;;;7.20;99.90;;;;;;4993660;28;20172;-67
2023/03/09 06:45:26;;;;;;;10.27;7.47;;;7.30;99.90;;;;;;4991274;28;20188;-67
2023/03/09 06:47:56;;;;;;;12.67;8.50;;;7.30;99.90;;;;;;4992860;28;20332;-69
2023/03/09 06:50:22;;;;;;;11.93;7.90;;;7.30;99.90;;;;;;4994418;28;20195;-68
2023/03/09 06:52:48;;;;;;;9.57;7.50;;;7.30;99.90;;;;;;5006645;28;20206;-68
2023/03/09 06:55:15;;;;;;;11.27;7.57;;;7.30;99.90;;;;;;4998009;28;20191;-68
2023/03/09 06:57:42;;;;;;;9.97;7.23;;;7.30;99.90;;;;;;4994379;28;20207;-69
2023/03/09 07:00:11;;;;;;;10.43;7.23;;;7.30;99.90;;;;;;4991306;28;20199;-68
2023/03/09 07:02:37;;;;;;;9.90;7.33;;;7.30;99.90;;;;;;4993828;28;20194;-67
2023/03/09 07:05:05;;;;;;;10.93;7.97;;;7.30;99.90;;;;;;4991087;28;20187;-68
2023/03/09 07:07:34;;;;;;;9.83;7.43;;;7.30;99.90;;;;;;4987955;28;20203;-68
2023/03/09 07:10:01;;;;;;;10.53;7.47;;;7.40;99.90;;;;;;4994647;28;20270;-69
2023/03/09 07:12:27;;;;;;;9.13;6.43;;;7.30;99.90;;;;;;4994755;28;20207;-67
2023/03/09 07:14:55;;;;;;;9.97;6.93;;;7.30;99.90;;;;;;4994586;28;20222;-68
2023/03/09 07:17:20;;;;;;;10.17;6.83;;;7.50;99.90;;;;;;4993995;28;20199;-67
2023/03/09 07:19:48;;;;;;;9.70;7.10;;;7.40;99.90;;;;;;4994266;28;20282;-68
2023/03/09 07:22:14;;;;;;;8.67;6.47;;;7.30;99.90;;;;;;4991675;28;20238;-67
2023/03/09 07:24:42;;;;;;;10.63;7.63;;;7.40;99.90;;;;;;4987893;28;20196;-67
2023/03/09 07:27:09;;;;;;;9.33;6.27;;;7.30;99.90;;;;;;4994378;28;20190;-67
2023/03/09 07:29:40;;;;;;;9.47;6.97;;;7.40;99.90;;;;;;4994252;28;20175;-67
2023/03/09 07:32:08;;;;;;;9.57;6.60;;;7.30;99.90;;;;;;4991416;28;20219;-66
2023/03/09 07:34:35;;;;;;;9.97;6.47;;;7.30;99.90;;;;;;4994489;28;20267;-68
2023/03/09 07:37:00;;;;;;;11.23;6.83;;;7.20;99.90;;;;;;4991647;28;20234;-68
2023/03/09 07:39:26;;;;;;;8.93;6.30;;;7.30;99.90;;;;;;4994212;28;20227;-68
2023/03/09 07:41:52;;;;;;;8.70;6.07;;;7.20;99.90;;;;;;4997747;28;20270;-67
2023/03/09 07:44:18;;;;;;;10.27;6.23;;;7.20;99.90;;;;;;4994243;28;20180;-67
2023/03/09 07:46:43;;;;;;;7.83;5.90;;;7.20;99.90;;;;;;4993779;28;20176;-68
2023/03/09 07:49:09;;;;;;;7.30;5.70;;;7.20;99.90;;;;;;4993993;28;20191;-67
2023/03/09 07:51:37;;;;;;;7.87;5.60;;;7.20;99.90;;;;;;4992144;28;20358;-67
2023/03/09 07:54:05;;;;;;;8.00;5.80;;;7.20;99.90;;;;;;5000190;28;20275;-67
2023/03/09 07:56:33;;;;;;;8.57;5.73;;;7.20;99.90;;;;;;4987276;28;20250;-67
2023/03/09 07:58:59;;;;;;;8.37;5.97;;;7.20;99.90;;;;;;4990501;28;20206;-70
2023/03/09 08:01:30;;;;;;;7.87;5.40;;;7.20;99.90;;;;;;4996200;28;20183;-67
2023/03/09 08:03:58;;;;;;;5.87;4.20;;;7.10;99.90;;;;;;5002576;28;20206;-67
2023/03/09 08:06:25;;;;;;;8.23;5.50;;;7.20;99.90;;;;;;5003131;28;20270;-67
2023/03/09 08:08:56;;;;;;;7.80;5.37;;;7.10;99.90;;;;;;4997482;28;20176;-66
2023/03/09 08:11:24;;;;;;;6.00;4.57;;;7.10;99.90;;;;;;4995655;28;20204;-67
2023/03/09 08:13:52;;;;;;;5.93;4.40;;;7.10;99.90;;;;;;4998214;28;20202;-66
2023/03/09 08:16:18;;;;;;;8.63;6.07;;;7.10;99.90;;;;;;5006605;28;20207;-67
2023/03/09 08:18:45;;;;;;;6.83;4.50;;;7.20;99.90;;;;;;4994894;28;20199;-66
2023/03/09 08:21:16;;;;;;;5.73;4.20;;;7.10;99.90;;;;;;4995086;28;20168;-66
2023/03/09 08:23:47;;;;;;;6.40;4.47;;;7.20;99.90;;;;;;4978625;28;20189;-68
2023/03/09 08:26:17;;;;;;;6.23;4.60;;;7.20;99.90;;;;;;4979047;28;20171;-67
2023/03/09 08:28:43;;;;;;;5.47;4.30;;;7.20;99.90;;;;;;4994570;28;20172;-66
2023/03/09 08:31:12;;;;;;;5.47;4.37;;;7.30;99.90;;;;;;4995545;28;20371;-67
2023/03/09 08:33:38;;;;;;;6.07;4.33;;;7.30;99.90;;;;;;4998006;28;20179;-66
2023/03/09 08:36:12;;;;;;;5.13;3.90;;;7.40;99.90;;;;;;4997318;28;20214;-66
2023/03/09 08:38:40;;;;;;;5.83;4.23;;;7.30;99.90;;;;;;4996931;28;20203;-66
2023/03/09 08:41:06;;;;;;;4.87;3.90;;;7.30;99.90;;;;;;4994159;28;20180;-66
2023/03/09 08:43:32;;;;;;;5.07;3.90;;;7.30;99.90;;;;;;4997577;28;20175;-67
2023/03/09 08:45:58;;;;;;;5.80;4.57;;;7.30;99.90;;;;;;4993906;28;20331;-67
2023/03/09 08:48:23;;;;;;;6.17;4.30;;;7.40;99.90;;;;;;4997197;28;20203;-66
2023/03/09 08:50:49;;;;;;;5.43;3.93;;;7.40;99.90;;;;;;4998323;28;20180;-67
2023/03/09 08:53:15;;;;;;;5.23;4.20;;;7.40;99.90;;;;;;4996801;28;20199;-67
2023/03/09 08:55:43;;;;;;;5.70;4.20;;;7.50;99.90;;;;;;4996281;28;20207;-67
2023/03/09 08:58:13;;;;;;;6.10;4.27;;;7.50;99.90;;;;;;4997244;28;20641;-66
2023/03/09 09:00:42;;;;;;;5.47;4.33;;;7.50;99.90;;;;;;4994574;28;20191;-67
2023/03/09 09:03:08;;;;;;;5.30;4.40;;;7.60;99.90;;;;;;4995372;28;20183;-66
2023/03/09 09:05:37;;;;;;;5.37;4.23;;;7.60;99.90;;;;;;5011291;28;20170;-67
2023/03/09 09:08:04;;;;;;;5.10;3.60;;;7.70;99.90;;;;;;4995121;28;20226;-67
2023/03/09 09:10:34;;;;;;;5.23;3.73;;;7.70;99.90;;;;;;4996217;28;20250;-67
2023/03/09 09:13:00;;;;;;;4.83;3.63;;;7.70;99.90;;;;;;4991634;28;20231;-67
2023/03/09 09:15:25;;;;;;;4.57;3.70;;;7.70;99.90;;;;;;4991130;28;20309;-67
2023/03/09 09:17:53;;;;;;;4.40;3.57;;;7.80;99.90;;;;;;4996515;28;20210;-67
2023/03/09 09:20:19;;;;;;;4.33;3.37;;;7.70;99.90;;;;;;5006783;28;20242;-67
2023/03/09 09:22:47;;;;;;;4.17;3.50;;;7.80;99.90;;;;;;4996658;28;20197;-67
2023/03/09 09:25:13;;;;;;;3.70;2.97;;;7.80;99.90;;;;;;4998085;28;20271;-67
2023/03/09 09:27:40;;;;;;;4.67;3.33;;;7.80;99.90;;;;;;4993239;28;20219;-67
2023/03/09 09:30:08;;;;;;;3.53;3.20;;;7.80;99.90;;;;;;4996247;28;20284;-66
2023/03/09 09:32:33;;;;;;;4.07;3.07;;;7.80;99.90;;;;;;4992893;28;20266;-67
2023/03/09 09:35:00;;;;;;;3.20;2.90;;;7.90;99.90;;;;;;4994256;28;20270;-67
2023/03/09 09:37:28;;;;;;;2.87;2.50;;;7.90;99.90;;;;;;4996281;28;20197;-67
2023/03/09 09:39:58;;;;;;;2.87;2.30;;;8.00;99.90;;;;;;4991553;28;20219;-68
2023/03/09 09:42:36;;;;;;;2.90;2.37;;;8.00;99.90;;;;;;4996426;28;20163;-69
2023/03/09 09:45:12;;;;;;;3.30;2.50;;;8.10;99.90;;;;;;4995741;28;20175;-66
2023/03/09 09:47:41;;;;;;;3.53;2.60;;;8.10;99.90;;;;;;4995721;28;20379;-66
2023/03/09 09:50:16;;;;;;;2.87;2.40;;;8.20;99.90;;;;;;4995454;28;20179;-68
2023/03/09 09:52:46;;;;;;;3.03;2.67;;;8.20;99.90;;;;;;4996141;28;20202;-66
2023/03/09 09:55:14;;;;;;;3.10;2.40;;;8.30;99.90;;;;;;4992715;28;20196;-67
2023/03/09 09:57:46;;;;;;;2.67;2.30;;;8.40;99.90;;;;;;5005674;28;20266;-66
2023/03/09 10:00:27;;;;;;;3.50;2.40;;;8.50;99.90;;;;;;4995492;28;20176;-66
2023/03/09 10:03:11;;;;;;;2.30;2.07;;;8.60;99.90;;;;;;4984418;28;20184;-67
2023/03/09 10:05:43;;;;;;;2.57;2.20;;;8.70;99.90;;;;;;4986039;28;20251;-67
2023/03/09 10:08:24;;;;;;;2.57;2.10;;;8.80;99.90;;;;;;4995176;28;20194;-66
2023/03/09 10:10:50;;;;;;;3.63;2.20;;;8.90;99.90;;;;;;4995454;28;20175;-67
2023/03/09 10:13:31;;;;;;;3.47;2.40;;;9.10;99.90;;;;;;4992566;28;20211;-67
2023/03/09 10:16:07;;;;;;;2.40;2.17;;;9.20;99.90;;;;;;4984259;28;20179;-67
2023/03/09 10:18:38;;;;;;;2.40;2.20;;;9.30;99.90;;;;;;4996057;28;20250;-67
2023/03/09 10:21:15;;;;;;;2.03;1.85;;;9.40;99.90;;;;;;4992689;28;20195;-67
2023/03/09 10:23:44;;;;;;;2.78;2.13;;;9.50;99.90;;;;;;4992847;28;20250;-67
2023/03/09 10:26:35;;;;;;;2.63;2.20;;;9.60;99.90;;;;;;4979389;28;20244;-66
2023/03/09 10:29:12;;;;;;;4.18;2.28;;;9.60;99.90;;;;;;5000460;28;20179;-66
2023/03/09 10:31:45;;;;;;;2.10;1.88;;;9.60;99.90;;;;;;5014997;28;20274;-66
2023/03/09 10:34:18;;;;;;;2.10;1.80;;;9.70;99.90;;;;;;4982024;28;20180;-66
2023/03/09 10:37:04;;;;;;;2.95;2.50;;;9.70;99.90;;;;;;4987517;28;20233;-66
2023/03/09 10:39:36;;;;;;;2.03;1.83;;;9.70;99.90;;;;;;4990912;28;20282;-67
2023/03/09 10:42:22;;;;;;;2.33;1.80;;;9.70;99.90;;;;;;4991096;28;20182;-68
2023/03/09 10:45:12;;;;;;;2.20;1.83;;;9.80;99.90;;;;;;4980556;28;20190;-67
2023/03/09 10:47:53;;;;;;;2.63;2.03;;;9.80;99.90;;;;;;4994494;28;20175;-67
2023/03/09 10:50:22;;;;;;;2.13;1.80;;;9.80;99.90;;;;;;4994460;28;20203;-67
2023/03/09 10:52:49;;;;;;;3.22;2.33;;;9.80;99.90;;;;;;4994272;28;20191;-66
2023/03/09 10:55:34;;;;;;;2.30;2.00;;;9.90;99.90;;;;;;4988654;28;20176;-68
2023/03/09 10:58:23;;;;;;;2.83;2.10;;;9.90;99.90;;;;;;5000938;28;20201;-66
2023/03/09 11:01:18;;;;;;;2.85;2.38;;;9.90;99.90;;;;;;4994399;28;20191;-67
2023/03/09 11:03:44;;;;;;;2.58;2.20;;;9.90;99.90;;;;;;5002676;28;20192;-67
2023/03/09 11:06:23;;;;;;;2.80;2.30;;;9.90;99.90;;;;;;4996263;28;20180;-67
2023/03/09 11:09:10;;;;;;;3.13;2.40;;;9.90;99.90;;;;;;4994209;28;20283;-67
2023/03/09 11:11:36;;;;;;;3.10;2.60;;;9.90;99.90;;;;;;4994583;28;20179;-67
2023/03/09 11:14:02;;;;;;;2.58;2.10;;;10.00;99.90;;;;;;4999589;28;20183;-67
2023/03/09 11:16:36;;;;;;;3.38;2.47;;;10.10;99.90;;;;;;5009789;28;20186;-67
2023/03/09 11:19:16;;;;;;;2.65;2.38;;;10.10;99.90;;;;;;4994343;28;20202;-68
2023/03/09 11:22:11;;;;;;;3.28;2.78;;;10.10;99.90;;;;;;4994116;28;20309;-66
2023/03/09 11:24:43;;;;;;;2.80;2.55;;;10.20;99.90;;;;;;5003582;28;20266;-67
2023/03/09 11:27:29;;;;;;;3.72;2.85;;;10.30;99.90;;;;;;4990705;28;20246;-66
2023/03/09 11:30:14;;;;;;;3.03;2.72;;;10.60;99.90;;;;;;4993225;28;20179;-66
2023/03/09 11:32:40;;;;;;;3.55;3.08;;;10.90;99.90;;;;;;5005090;28;20190;-66
2023/03/09 11:35:13;;;;;;;3.70;3.15;;;11.30;99.90;;;;;;4993694;28;20195;-67
2023/03/09 11:38:04;;;;;;;3.90;3.30;;;11.60;99.90;;;;;;4988100;28;20234;-67
2023/03/09 11:40:33;;;;;;;3.47;2.83;;;11.90;99.90;;;;;;4991621;28;20195;-67
2023/03/09 11:43:10;;;;;;;2.83;2.63;;;11.90;99.90;;;;;;4997960;28;20202;-65
2023/03/09 11:45:41;;;;;;;3.13;2.72;;;11.90;99.90;;;;;;4996005;28;20186;-67
2023/03/09 11:48:33;;;;;;;3.13;2.55;;;11.80;99.90;;;;;;4983898;28;20234;-67
2023/03/09 11:51:06;;;;;;;2.95;2.47;;;11.90;99.90;;;;;;4997796;28;20171;-67
2023/03/09 11:53:49;;;;;;;3.63;2.80;;;11.90;99.90;;;;;;5002176;28;20257;-66
2023/03/09 11:56:22;;;;;;;2.63;2.35;;;12.00;99.90;;;;;;4993077;28;20239;-68
2023/03/09 11:58:53;;;;;;;3.05;2.60;;;12.00;99.90;;;;;;4995883;28;20206;-68
2023/03/09 12:02:01;;;;;;;3.03;2.72;;;12.10;99.90;;;;;;4997484;28;20202;-67
2023/03/09 12:04:29;;;;;;;2.83;2.40;;;12.20;99.90;;;;;;4989522;28;20194;-67
2023/03/09 12:07:26;;;;;;;3.40;2.60;;;12.30;99.90;;;;;;4997115;28;20273;-67
2023/03/09 12:10:29;;;;;;;3.08;2.60;;;12.30;99.90;;;;;;4996754;28;20179;-67
2023/03/09 12:13:14;;;;;;;3.22;2.70;;;12.40;99.90;;;;;;4994285;28;20213;-67
2023/03/09 12:15:54;;;;;;;3.05;2.75;;;12.40;99.90;;;;;;4977940;28;20242;-67
2023/03/09 12:18:24;;;;;;;2.92;2.55;;;12.40;99.90;;;;;;4995689;28;20197;-67
2023/03/09 12:20:58;;;;;;;4.07;2.85;;;12.40;99.90;;;;;;5017123;28;20171;-68
2023/03/09 12:23:35;;;;;;;3.13;2.63;;;12.50;99.90;;;;;;5006446;28;20171;-67
2023/03/09 12:26:29;;;;;;;3.20;2.90;;;12.40;99.90;;;;;;4996351;28;20195;-67
2023/03/09 12:29:07;;;;;;;3.10;2.70;;;12.50;99.90;;;;;;4988543;28;20187;-66
2023/03/09 12:31:35;;;;;;;3.63;3.00;;;12.50;99.90;;;;;;4997025;28;20211;-68
2023/03/09 12:34:23;;;;;;;3.10;2.80;;;12.60;99.90;;;;;;4997291;28;20314;-68
2023/03/09 12:36:51;;;;;;;3.13;2.83;;;12.50;99.90;;;;;;4996213;28;20176;-66
2023/03/09 12:39:23;;;;;;;2.70;2.47;;;12.50;99.90;;;;;;5014851;28;20174;-67
2023/03/09 12:42:07;;;;;;;3.28;2.50;;;12.40;99.90;;;;;;4996446;28;20202;-66
2023/03/09 12:44:47;;;;;;;3.22;2.92;;;12.40;99.90;;;;;;5007017;28;20210;-67
2023/03/09 12:47:24;;;;;;;3.63;3.05;;;12.40;99.90;;;;;;5016426;28;20175;-69
2023/03/09 12:49:54;;;;;;;3.78;2.85;;;12.30;99.90;;;;;;4977037;28;20274;-67
2023/03/09 12:52:39;;;;;;;3.30;2.97;;;12.20;99.90;;;;;;4978110;28;20195;-68
2023/03/09 12:55:15;;;;;;;4.90;3.40;;;12.20;99.90;;;;;;4997376;28;20190;-67
2023/03/09 12:57:45;;;;;;;3.33;3.00;;;12.10;99.90;;;;;;4996526;28;20217;-67
2023/03/09 13:00:29;;;;;;;3.55;3.25;;;12.10;99.90;;;;;;4996806;28;20835;-67
2023/03/09 13:03:16;;;;;;;3.47;3.17;;;12.20;99.90;;;;;;4980465;28;20234;-66
2023/03/09 13:05:48;;;;;;;3.28;2.92;;;12.30;99.90;;;;;;4998981;28;20179;-67
2023/03/09 13:08:19;;;;;;;3.42;3.05;;;12.40;99.90;;;;;;4996904;28;20176;-67